Time;durP1;ratioP1;P1;durP2;ratioP2;P2;SDS_P1;SDS_P2;PMS_P1;PMS_P2;Temp;Humidity;BMP_temperature;BMP_pressure;BME280_temperature;BME280_humidity;BME280_pressure;Samples;Min_cycle;Max_cycle;Signal;HPM_P1;HPM_P2
2023/01/20 00:02:20;;;;;;;12.70;7.93;;;;;;;;;;5094043;28;20300;-75
2023/01/20 00:04:48;;;;;;;12.50;8.10;;;;;;;;;;5094734;28;20282;-75
2023/01/20 00:07:16;;;;;;;12.40;7.97;;;;;;;;;;5094322;28;20201;-75
2023/01/20 00:09:43;;;;;;;12.13;7.53;;;;;;;;;;5094156;28;20303;-75
2023/01/20 00:12:10;;;;;;;13.57;8.77;;;;;;;;;;5078730;28;20235;-75
2023/01/20 00:14:38;;;;;;;18.30;9.60;;;;;;;;;;5074053;28;20682;-75
2023/01/20 00:17:06;;;;;;;14.57;10.10;;;;;;;;;;5073601;28;20642;-75
2023/01/20 00:19:33;;;;;;;16.70;10.27;;;;;;;;;;5074299;28;20312;-74
2023/01/20 00:22:00;;;;;;;18.03;10.83;;;;;;;;;;5074223;28;20279;-75
2023/01/20 00:24:27;;;;;;;20.57;11.83;;;;;;;;;;5073950;28;20227;-75
2023/01/20 00:26:54;;;;;;;19.57;12.93;;;;;;;;;;5073720;28;20219;-75
2023/01/20 00:29:21;;;;;;;24.87;17.73;;;;;;;;;;5073677;28;20236;-74
2023/01/20 00:31:50;;;;;;;23.23;16.73;;;;;;;;;;5073486;28;20291;-75
2023/01/20 00:34:17;;;;;;;23.53;15.33;;;;;;;;;;5073758;28;20243;-74
2023/01/20 00:36:44;;;;;;;21.90;14.73;;;;;;;;;;5073869;28;20655;-75
2023/01/20 00:39:12;;;;;;;23.23;14.43;;;;;;;;;;5073398;28;20195;-75
2023/01/20 00:41:39;;;;;;;23.60;13.50;;;;;;;;;;5073218;28;20220;-75
2023/01/20 00:44:06;;;;;;;21.93;12.97;;;;;;;;;;5073342;28;20295;-74
2023/01/20 00:46:33;;;;;;;19.87;12.43;;;;;;;;;;5073404;28;20381;-74
2023/01/20 00:49:02;;;;;;;19.40;10.90;;;;;;;;;;5079609;28;20250;-75
2023/01/20 00:51:29;;;;;;;18.33;10.93;;;;;;;;;;5093547;28;20731;-75
2023/01/20 00:53:57;;;;;;;21.07;12.20;;;;;;;;;;5093324;28;20745;-75
2023/01/20 00:56:24;;;;;;;21.93;13.67;;;;;;;;;;5093237;28;20237;-75
2023/01/20 00:58:53;;;;;;;22.07;13.40;;;;;;;;;;5093370;28;20289;-75
2023/01/20 01:01:21;;;;;;;22.03;14.57;;;;;;;;;;5093333;28;20202;-74
2023/01/20 01:03:48;;;;;;;23.10;15.57;;;;;;;;;;5093039;28;20560;-75
2023/01/20 01:06:18;;;;;;;22.97;14.67;;;;;;;;;;5093193;28;20207;-75
2023/01/20 01:08:45;;;;;;;22.30;15.00;;;;;;;;;;5093298;28;20325;-74
2023/01/20 01:11:13;;;;;;;22.17;14.20;;;;;;;;;;5093032;28;20301;-74
2023/01/20 01:13:40;;;;;;;19.47;11.80;;;;;;;;;;5092532;28;20700;-74
2023/01/20 01:16:10;;;;;;;18.53;12.80;;;;;;;;;;5093072;28;20285;-74
2023/01/20 01:18:37;;;;;;;21.27;13.13;;;;;;;;;;5092646;28;20625;-74
2023/01/20 01:21:07;;;;;;;22.03;12.73;;;;;;;;;;5093484;28;20303;-74
2023/01/20 01:23:35;;;;;;;23.53;13.60;;;;;;;;;;5093189;28;20285;-74
2023/01/20 01:26:02;;;;;;;22.27;13.57;;;;;;;;;;5092970;28;20241;-75
2023/01/20 01:28:30;;;;;;;22.10;12.70;;;;;;;;;;5092404;28;20217;-74
2023/01/20 01:31:00;;;;;;;18.67;11.80;;;;;;;;;;5092991;28;20230;-74
2023/01/20 01:33:27;;;;;;;17.97;11.23;;;;;;;;;;5092622;28;20289;-74
2023/01/20 01:35:58;;;;;;;16.90;11.50;;;;;;;;;;5092627;28;20286;-74
2023/01/20 01:38:25;;;;;;;16.63;9.60;;;;;;;;;;5092792;28;20277;-74
2023/01/20 01:40:54;;;;;;;13.30;8.87;;;;;;;;;;5092884;28;20238;-74
2023/01/20 01:43:24;;;;;;;14.47;7.60;;;;;;;;;;5091859;28;21264;-75
2023/01/20 01:45:51;;;;;;;14.53;7.30;;;;;;;;;;5092368;28;20223;-75
2023/01/20 01:48:22;;;;;;;15.90;7.33;;;;;;;;;;5092445;28;20229;-75
2023/01/20 01:50:50;;;;;;;14.43;8.40;;;;;;;;;;5092226;28;20239;-74
2023/01/20 01:53:18;;;;;;;16.70;9.20;;;;;;;;;;5091821;28;20746;-75
2023/01/20 01:55:47;;;;;;;18.70;10.93;;;;;;;;;;5092414;28;20280;-74
2023/01/20 01:58:17;;;;;;;20.63;11.80;;;;;;;;;;5092033;28;20299;-74
2023/01/20 02:00:45;;;;;;;15.57;10.87;;;;;;;;;;5092067;28;20640;-75
2023/01/20 02:03:12;;;;;;;16.70;10.07;;;;;;;;;;5092149;28;20290;-75
2023/01/20 02:05:40;;;;;;;17.20;9.60;;;;;;;;;;5092492;28;20234;-75
2023/01/20 02:08:08;;;;;;;21.30;9.97;;;;;;;;;;5092082;28;20229;-74
2023/01/20 02:10:35;;;;;;;15.17;8.63;;;;;;;;;;5091459;28;20333;-74
2023/01/20 02:13:03;;;;;;;18.57;9.90;;;;;;;;;;5092203;28;20571;-74
2023/01/20 02:15:36;;;;;;;16.80;10.30;;;;;;;;;;5091737;28;20877;-74
2023/01/20 02:18:11;;;;;;;19.37;11.17;;;;;;;;;;5091781;28;20281;-74
2023/01/20 02:20:47;;;;;;;19.10;11.13;;;;;;;;;;5091556;28;20605;-74
2023/01/20 02:23:21;;;;;;;18.50;11.67;;;;;;;;;;5091927;28;20285;-75
2023/01/20 02:25:59;;;;;;;20.20;10.93;;;;;;;;;;5091475;28;20225;-75
2023/01/20 02:28:45;;;;;;;17.50;10.63;;;;;;;;;;5091959;28;20229;-75
2023/01/20 02:31:25;;;;;;;22.17;11.37;;;;;;;;;;5091762;28;20257;-74
2023/01/20 02:33:57;;;;;;;18.53;11.00;;;;;;;;;;5091535;28;20226;-73
2023/01/20 02:36:28;;;;;;;16.63;10.43;;;;;;;;;;5091992;28;20283;-74
2023/01/20 02:38:57;;;;;;;20.97;11.40;;;;;;;;;;5091739;28;20289;-74
2023/01/20 02:41:27;;;;;;;18.97;11.10;;;;;;;;;;5090817;28;20322;-75
2023/01/20 02:43:57;;;;;;;18.87;10.57;;;;;;;;;;5091700;28;20641;-75
2023/01/20 02:46:27;;;;;;;17.53;9.83;;;;;;;;;;5091070;28;20285;-74
2023/01/20 02:48:59;;;;;;;19.87;10.67;;;;;;;;;;5091682;28;20241;-74
2023/01/20 02:51:27;;;;;;;19.30;11.03;;;;;;;;;;5091140;28;20269;-76
2023/01/20 02:53:55;;;;;;;16.93;10.50;;;;;;;;;;5091964;28;20221;-74
2023/01/20 02:56:25;;;;;;;17.20;9.80;;;;;;;;;;5091274;28;20289;-75
2023/01/20 02:58:56;;;;;;;16.17;9.77;;;;;;;;;;5091546;28;20234;-75
2023/01/20 03:01:24;;;;;;;15.47;9.33;;;;;;;;;;5091248;28;20742;-74
2023/01/20 03:03:53;;;;;;;14.20;9.03;;;;;;;;;;5091062;28;20658;-75
2023/01/20 03:06:23;;;;;;;13.70;8.63;;;;;;;;;;5091892;28;20244;-74
2023/01/20 03:08:52;;;;;;;15.20;8.67;;;;;;;;;;5091121;28;20337;-75
2023/01/20 03:11:19;;;;;;;13.20;8.73;;;;;;;;;;5090695;28;20316;-75
2023/01/20 03:13:54;;;;;;;13.33;8.10;;;;;;;;;;5091211;28;20294;-74
2023/01/20 03:16:23;;;;;;;14.80;8.77;;;;;;;;;;5090620;28;20289;-74
2023/01/20 03:18:50;;;;;;;12.73;7.93;;;;;;;;;;5078057;28;20243;-74
2023/01/20 03:21:18;;;;;;;11.53;8.13;;;;;;;;;;5091043;28;20766;-74
2023/01/20 03:23:47;;;;;;;12.30;8.03;;;;;;;;;;5090988;28;20225;-74
2023/01/20 03:26:16;;;;;;;15.73;8.20;;;;;;;;;;5090921;28;20252;-74
2023/01/20 03:28:44;;;;;;;14.03;8.77;;;;;;;;;;5091718;28;20287;-76
2023/01/20 03:31:14;;;;;;;18.17;8.50;;;;;;;;;;5090909;28;20233;-75
2023/01/20 03:33:41;;;;;;;17.00;8.93;;;;;;;;;;5091213;28;20288;-74
2023/01/20 03:36:09;;;;;;;13.47;8.67;;;;;;;;;;5091274;28;20290;-74
2023/01/20 03:38:36;;;;;;;17.93;9.60;;;;;;;;;;5090230;28;20288;-75
2023/01/20 03:41:08;;;;;;;18.03;10.77;;;;;;;;;;5091102;28;20289;-74
2023/01/20 03:43:39;;;;;;;19.03;11.60;;;;;;;;;;5091202;28;20224;-75
2023/01/20 03:46:11;;;;;;;21.97;11.97;;;;;;;;;;5091015;28;20296;-74
2023/01/20 03:48:41;;;;;;;19.27;11.90;;;;;;;;;;5090653;28;20290;-74
2023/01/20 03:51:11;;;;;;;21.00;11.97;;;;;;;;;;5090956;28;20316;-75
2023/01/20 03:53:44;;;;;;;18.07;11.13;;;;;;;;;;5090872;28;20285;-74
2023/01/20 03:56:16;;;;;;;17.27;11.07;;;;;;;;;;5091078;28;20202;-75
2023/01/20 03:58:45;;;;;;;20.00;11.93;;;;;;;;;;5090657;28;20233;-75
2023/01/20 04:01:13;;;;;;;18.97;12.23;;;;;;;;;;5090588;28;20250;-75
2023/01/20 04:03:43;;;;;;;20.47;13.10;;;;;;;;;;5090747;28;20318;-74
2023/01/20 04:06:11;;;;;;;21.17;12.70;;;;;;;;;;5090881;28;20236;-75
2023/01/20 04:08:41;;;;;;;18.47;11.87;;;;;;;;;;5090199;28;20317;-74
2023/01/20 04:11:09;;;;;;;20.77;12.47;;;;;;;;;;5089761;28;20817;-74
2023/01/20 04:13:37;;;;;;;18.80;12.63;;;;;;;;;;5090670;28;20230;-74
2023/01/20 04:16:10;;;;;;;21.03;13.00;;;;;;;;;;5092055;28;20297;-74
2023/01/20 04:18:41;;;;;;;17.57;12.70;;;;;;;;;;5094501;28;20714;-74
2023/01/20 04:21:11;;;;;;;20.60;13.43;;;;;;;;;;5094338;28;20289;-75
2023/01/20 04:23:41;;;;;;;20.03;13.83;;;;;;;;;;5094177;28;20277;-75
2023/01/20 04:26:08;;;;;;;20.60;13.43;;;;;;;;;;5094390;28;20257;-74
2023/01/20 04:28:35;;;;;;;20.73;14.67;;;;;;;;;;5094358;28;20290;-75
2023/01/20 04:31:03;;;;;;;19.67;13.70;;;;;;;;;;5093975;28;20261;-74
2023/01/20 04:33:31;;;;;;;18.47;12.33;;;;;;;;;;5094121;28;20199;-74
2023/01/20 04:35:58;;;;;;;19.67;12.77;;;;;;;;;;5094320;28;20229;-75
2023/01/20 04:38:25;;;;;;;22.73;13.67;;;;;;;;;;5093580;28;20197;-74
2023/01/20 04:40:52;;;;;;;22.93;13.77;;;;;;;;;;5093969;28;20234;-75
2023/01/20 04:43:19;;;;;;;19.40;12.77;;;;;;;;;;5093918;28;20316;-75
2023/01/20 04:45:46;;;;;;;18.97;13.40;;;;;;;;;;5093656;28;20737;-75
2023/01/20 04:48:15;;;;;;;19.10;12.30;;;;;;;;;;5093724;28;20259;-74
2023/01/20 04:50:42;;;;;;;19.30;12.83;;;;;;;;;;5093480;28;20317;-75
2023/01/20 04:53:12;;;;;;;19.53;13.03;;;;;;;;;;5093440;28;20290;-74
2023/01/20 04:55:39;;;;;;;20.67;12.80;;;;;;;;;;5093623;28;20258;-74
2023/01/20 04:58:06;;;;;;;20.50;12.67;;;;;;;;;;5093337;28;20294;-74
2023/01/20 05:00:33;;;;;;;24.97;12.60;;;;;;;;;;5093790;28;20289;-75
2023/01/20 05:03:01;;;;;;;17.23;12.77;;;;;;;;;;5093469;28;20281;-75
2023/01/20 05:05:29;;;;;;;17.80;11.60;;;;;;;;;;5093062;28;20229;-75
2023/01/20 05:07:58;;;;;;;21.27;11.83;;;;;;;;;;5093852;28;20218;-75
2023/01/20 05:10:25;;;;;;;16.73;10.97;;;;;;;;;;5092581;28;20291;-74
2023/01/20 05:12:52;;;;;;;17.80;10.53;;;;;;;;;;5093519;28;20284;-75
2023/01/20 05:15:19;;;;;;;14.53;9.37;;;;;;;;;;5093011;28;20285;-74
2023/01/20 05:17:46;;;;;;;15.73;10.50;;;;;;;;;;5093835;28;20638;-75
2023/01/20 05:20:14;;;;;;;16.33;11.00;;;;;;;;;;5092770;28;20224;-76
2023/01/20 05:22:43;;;;;;;16.83;10.33;;;;;;;;;;5093152;28;20484;-75
2023/01/20 05:25:10;;;;;;;15.13;10.00;;;;;;;;;;5093207;28;20285;-74
2023/01/20 05:27:37;;;;;;;17.03;10.63;;;;;;;;;;5092872;28;20229;-74
2023/01/20 05:30:05;;;;;;;15.07;10.90;;;;;;;;;;5093063;28;20283;-74
2023/01/20 05:32:32;;;;;;;17.87;11.53;;;;;;;;;;5092955;28;20247;-77
2023/01/20 05:34:59;;;;;;;16.13;11.90;;;;;;;;;;5092554;28;20217;-74
2023/01/20 05:37:26;;;;;;;16.17;11.47;;;;;;;;;;5092715;28;20221;-75
2023/01/20 05:39:55;;;;;;;18.53;11.90;;;;;;;;;;5092686;28;20285;-77
2023/01/20 05:42:22;;;;;;;17.67;10.67;;;;;;;;;;5092595;28;20300;-74
2023/01/20 05:44:49;;;;;;;20.80;12.13;;;;;;;;;;5092221;28;20668;-74
2023/01/20 05:47:17;;;;;;;19.93;12.20;;;;;;;;;;5092565;28;20226;-73
2023/01/20 05:49:44;;;;;;;20.73;12.50;;;;;;;;;;5092213;28;20291;-74
2023/01/20 05:52:11;;;;;;;20.30;12.43;;;;;;;;;;5092681;28;20319;-75
2023/01/20 05:54:38;;;;;;;17.77;11.93;;;;;;;;;;5092300;28;20290;-73
2023/01/20 05:57:07;;;;;;;19.07;12.07;;;;;;;;;;5092112;28;20291;-74
2023/01/20 05:59:34;;;;;;;19.97;12.30;;;;;;;;;;5092646;28;20287;-74
2023/01/20 06:02:01;;;;;;;17.20;11.10;;;;;;;;;;5092295;28;20231;-74
2023/01/20 06:04:28;;;;;;;21.13;11.63;;;;;;;;;;5091626;28;20293;-75
2023/01/20 06:06:56;;;;;;;16.87;10.07;;;;;;;;;;5092370;28;20293;-78
2023/01/20 06:09:23;;;;;;;18.20;10.47;;;;;;;;;;5091875;28;20340;-76
2023/01/20 06:11:51;;;;;;;15.33;9.03;;;;;;;;;;5092094;28;20321;-75
2023/01/20 06:14:20;;;;;;;15.53;9.57;;;;;;;;;;5092209;28;20216;-78
2023/01/20 06:16:47;;;;;;;13.50;9.20;;;;;;;;;;5092027;28;20202;-78
2023/01/20 06:19:14;;;;;;;13.90;9.90;;;;;;;;;;5091722;28;20224;-78
2023/01/20 06:21:41;;;;;;;15.83;9.73;;;;;;;;;;5091481;28;20301;-75
2023/01/20 06:24:09;;;;;;;14.10;8.83;;;;;;;;;;5072573;28;20300;-77
2023/01/20 06:26:36;;;;;;;16.23;9.63;;;;;;;;;;5071752;28;20280;-78
2023/01/20 06:29:03;;;;;;;16.67;9.33;;;;;;;;;;5071740;28;20230;-79
2023/01/20 06:31:32;;;;;;;14.20;9.43;;;;;;;;;;5075789;28;20246;-78
2023/01/20 06:33:59;;;;;;;14.03;9.73;;;;;;;;;;5091785;28;20284;-78
2023/01/20 06:36:26;;;;;;;14.90;10.43;;;;;;;;;;5090315;28;20220;-78
2023/01/20 06:38:53;;;;;;;15.23;10.40;;;;;;;;;;5070810;28;20232;-76
2023/01/20 06:41:21;;;;;;;18.07;11.80;;;;;;;;;;5077066;28;20293;-81
2023/01/20 06:43:49;;;;;;;17.47;10.90;;;;;;;;;;5075666;28;20286;-78
2023/01/20 06:46:16;;;;;;;20.07;11.43;;;;;;;;;;5071464;28;20204;-79
2023/01/20 06:48:45;;;;;;;19.93;13.13;;;;;;;;;;5071682;28;20292;-79
2023/01/20 06:51:14;;;;;;;18.43;12.47;;;;;;;;;;5070593;28;20315;-77
2023/01/20 06:53:41;;;;;;;21.63;13.17;;;;;;;;;;5071035;28;20284;-77
2023/01/20 06:56:10;;;;;;;21.10;13.57;;;;;;;;;;5072326;28;20291;-78
2023/01/20 06:58:37;;;;;;;20.53;13.73;;;;;;;;;;5090797;28;20322;-79
2023/01/20 07:01:05;;;;;;;41.83;27.90;;;;;;;;;;5088331;28;20239;-80
2023/01/20 07:03:32;;;;;;;25.60;16.33;;;;;;;;;;5091104;28;20296;-77
2023/01/20 07:06:02;;;;;;;22.47;16.03;;;;;;;;;;5089334;28;20254;-75
2023/01/20 07:08:29;;;;;;;24.53;15.73;;;;;;;;;;5090537;28;20289;-79
2023/01/20 07:10:57;;;;;;;22.60;15.23;;;;;;;;;;5090928;28;20317;-79
2023/01/20 07:13:24;;;;;;;24.73;15.77;;;;;;;;;;5090694;28;20609;-77
2023/01/20 07:15:51;;;;;;;26.63;16.00;;;;;;;;;;5088162;28;20229;-75
2023/01/20 07:18:18;;;;;;;23.87;15.33;;;;;;;;;;5090251;28;20224;-79
2023/01/20 07:20:46;;;;;;;23.07;15.13;;;;;;;;;;5088801;28;20263;-76
2023/01/20 07:23:14;;;;;;;26.27;15.83;;;;;;;;;;5070424;28;20737;-77
2023/01/20 07:25:41;;;;;;;37.13;18.83;;;;;;;;;;5071340;28;20748;-76
2023/01/20 07:28:09;;;;;;;49.43;23.63;;;;;;;;;;5070842;28;20333;-77
2023/01/20 07:30:36;;;;;;;186.47;59.57;;;;;;;;;;5070184;28;20238;-77
2023/01/20 07:33:04;;;;;;;99.80;40.07;;;;;;;;;;5070489;28;20582;-77
2023/01/20 07:35:31;;;;;;;31.30;17.70;;;;;;;;;;5070792;28;20196;-77
2023/01/20 07:37:58;;;;;;;35.07;16.97;;;;;;;;;;5070663;28;20237;-77
2023/01/20 07:40:27;;;;;;;26.37;14.23;;;;;;;;;;5070625;28;20313;-77
2023/01/20 07:42:54;;;;;;;24.53;13.30;;;;;;;;;;5070559;28;20757;-77
2023/01/20 07:45:21;;;;;;;23.30;14.07;;;;;;;;;;5070637;28;20614;-77
2023/01/20 07:47:48;;;;;;;24.80;14.47;;;;;;;;;;5070785;28;20281;-77
2023/01/20 07:50:16;;;;;;;26.80;15.60;;;;;;;;;;5070905;28;20286;-77
2023/01/20 07:52:43;;;;;;;28.80;16.33;;;;;;;;;;5073845;28;20318;-77
2023/01/20 07:55:10;;;;;;;28.77;16.33;;;;;;;;;;5074644;28;20290;-77
2023/01/20 07:57:39;;;;;;;32.13;16.63;;;;;;;;;;5075273;28;20202;-77
2023/01/20 08:00:07;;;;;;;29.30;17.10;;;;;;;;;;5073861;28;20197;-77
2023/01/20 08:02:37;;;;;;;31.73;17.70;;;;;;;;;;5073916;28;20302;-78
2023/01/20 08:05:05;;;;;;;36.13;19.43;;;;;;;;;;5074319;28;20222;-77
2023/01/20 08:07:32;;;;;;;34.57;20.07;;;;;;;;;;5074176;28;20290;-77
2023/01/20 08:09:59;;;;;;;35.83;20.83;;;;;;;;;;5073631;28;20674;-78
2023/01/20 08:12:26;;;;;;;36.77;20.00;;;;;;;;;;5077492;28;20671;-77
2023/01/20 08:14:55;;;;;;;34.87;19.93;;;;;;;;;;5073802;28;20283;-77
2023/01/20 08:17:23;;;;;;;34.27;22.30;;;;;;;;;;5083118;28;20740;-77
2023/01/20 08:19:50;;;;;;;30.43;20.97;;;;;;;;;;5093761;28;20209;-78
2023/01/20 08:22:17;;;;;;;23.57;14.87;;;;;;;;;;5093484;28;20295;-77
2023/01/20 08:24:44;;;;;;;21.27;14.57;;;;;;;;;;5094335;28;20799;-77
2023/01/20 08:27:11;;;;;;;22.87;15.13;;;;;;;;;;5094232;28;20205;-77
2023/01/20 08:29:39;;;;;;;21.87;14.47;;;;;;;;;;5093848;28;20294;-77
2023/01/20 08:32:07;;;;;;;20.40;13.87;;;;;;;;;;5094013;28;20324;-78
2023/01/20 08:34:35;;;;;;;20.40;14.57;;;;;;;;;;5094121;28;20244;-77
2023/01/20 08:37:02;;;;;;;21.63;13.17;;;;;;;;;;5094026;28;20226;-77
2023/01/20 08:39:29;;;;;;;19.43;13.27;;;;;;;;;;5094088;28;20229;-77
2023/01/20 08:41:56;;;;;;;19.80;13.67;;;;;;;;;;5094140;28;20662;-77
2023/01/20 08:44:23;;;;;;;19.57;14.70;;;;;;;;;;5093223;28;20353;-77
2023/01/20 08:46:53;;;;;;;31.63;22.27;;;;;;;;;;5091027;28;20224;-77
2023/01/20 08:49:22;;;;;;;18.07;12.17;;;;;;;;;;5082002;28;20698;-77
2023/01/20 08:51:49;;;;;;;15.50;10.80;;;;;;;;;;5083077;28;20245;-77
2023/01/20 08:54:18;;;;;;;16.57;11.33;;;;;;;;;;5073094;28;20641;-77
2023/01/20 08:56:45;;;;;;;12.63;9.77;;;;;;;;;;5073182;28;20256;-77
2023/01/20 08:59:12;;;;;;;13.67;10.37;;;;;;;;;;5072907;28;20296;-77
2023/01/20 09:01:40;;;;;;;13.13;10.47;;;;;;;;;;5085458;28;20240;-77
2023/01/20 09:04:08;;;;;;;19.47;17.43;;;;;;;;;;5093477;28;20194;-78
2023/01/20 09:06:44;;;;;;;12.97;11.37;;;;;;;;;;5083251;28;20234;-78
2023/01/20 09:09:12;;;;;;;18.13;16.30;;;;;;;;;;5072767;28;20790;-79
2023/01/20 09:11:39;;;;;;;13.13;10.30;;;;;;;;;;5083583;28;20279;-78
2023/01/20 09:14:06;;;;;;;16.00;10.30;;;;;;;;;;5093111;28;20670;-78
2023/01/20 09:16:34;;;;;;;12.40;10.40;;;;;;;;;;5092912;28;20285;-78
2023/01/20 09:19:02;;;;;;;11.87;10.33;;;;;;;;;;5092892;28;20203;-78
2023/01/20 09:21:29;;;;;;;12.53;10.70;;;;;;;;;;5092915;28;20198;-79
2023/01/20 09:23:57;;;;;;;15.53;11.73;;;;;;;;;;5093327;28;20241;-78
2023/01/20 09:26:25;;;;;;;11.60;10.10;;;;;;;;;;5092405;28;20226;-78
2023/01/20 09:28:52;;;;;;;14.00;10.43;;;;;;;;;;5092393;28;20697;-78
2023/01/20 09:31:19;;;;;;;14.23;10.03;;;;;;;;;;5092723;28;20667;-78
2023/01/20 09:33:46;;;;;;;12.87;11.47;;;;;;;;;;5092566;28;20210;-78
2023/01/20 09:36:13;;;;;;;15.33;12.00;;;;;;;;;;5092868;28;20301;-79
2023/01/20 09:44:38;;;;;;;14.93;10.63;;;;;;;;;;5008279;28;20593;-78
2023/01/20 09:47:20;;;;;;;12.30;9.03;;;;;;;;;;5009802;28;20699;-79
2023/01/20 09:55:27;;;;;;;10.73;8.23;;;;;;;;;;5009535;28;20435;-79
2023/01/20 09:57:59;;;;;;;9.63;8.60;;;;;;;;;;5010311;28;20232;-79
2023/01/20 10:00:28;;;;;;;11.63;9.03;;;;;;;;;;5009347;28;20305;-79
2023/01/20 10:03:00;;;;;;;11.60;9.53;;;;;;;;;;5009350;28;20654;-78
2023/01/20 10:05:31;;;;;;;14.27;9.90;;;;;;;;;;5009703;28;20239;-79
2023/01/20 10:08:02;;;;;;;12.13;9.60;;;;;;;;;;5010224;28;20197;-77
2023/01/20 10:10:32;;;;;;;13.70;10.10;;;;;;;;;;5008759;28;20319;-78
2023/01/20 10:13:03;;;;;;;13.83;7.87;;;;;;;;;;5009142;28;20311;-78
2023/01/20 10:15:33;;;;;;;20.27;9.30;;;;;;;;;;5053795;28;20218;-78
2023/01/20 10:18:03;;;;;;;11.80;8.47;;;;;;;;;;5090924;28;20322;-78
2023/01/20 10:20:33;;;;;;;17.00;9.10;;;;;;;;;;5091501;28;20222;-78
2023/01/20 10:23:04;;;;;;;11.50;8.10;;;;;;;;;;5091388;28;20198;-79
2023/01/20 10:25:34;;;;;;;10.90;8.03;;;;;;;;;;5091492;28;20202;-78
2023/01/20 10:28:05;;;;;;;13.23;8.13;;;;;;;;;;5091542;28;20194;-78
2023/01/20 10:30:33;;;;;;;13.17;7.97;;;;;;;;;;5091699;28;20222;-78
2023/01/20 10:33:03;;;;;;;10.67;7.30;;;;;;;;;;5085427;28;20342;-77
2023/01/20 10:35:34;;;;;;;14.77;9.90;;;;;;;;;;5082539;28;20223;-77
2023/01/20 10:38:02;;;;;;;12.47;8.93;;;;;;;;;;5081592;28;20222;-77
2023/01/20 10:40:33;;;;;;;10.60;8.10;;;;;;;;;;5073828;28;20305;-77
2023/01/20 10:43:01;;;;;;;10.37;7.17;;;;;;;;;;5082890;28;20210;-77
2023/01/20 10:45:35;;;;;;;12.10;6.70;;;;;;;;;;5077259;28;20236;-78
2023/01/20 10:48:05;;;;;;;11.33;6.83;;;;;;;;;;5079726;28;20242;-78
2023/01/20 10:50:43;;;;;;;8.73;6.00;;;;;;;;;;5070670;28;20333;-77
2023/01/20 10:53:25;;;;;;;9.17;7.07;;;;;;;;;;5078652;28;20260;-77
2023/01/20 10:55:58;;;;;;;10.43;6.50;;;;;;;;;;5074742;28;20645;-77
2023/01/20 10:58:27;;;;;;;8.33;6.17;;;;;;;;;;5079828;28;20223;-77
2023/01/20 11:00:56;;;;;;;9.03;5.97;;;;;;;;;;5071088;28;20714;-77
2023/01/20 11:03:23;;;;;;;10.10;6.40;;;;;;;;;;5071189;28;20306;-77
2023/01/20 11:05:52;;;;;;;7.93;5.83;;;;;;;;;;5071029;28;20294;-78
2023/01/20 11:08:21;;;;;;;9.20;6.17;;;;;;;;;;5070453;28;20249;-77
2023/01/20 11:10:50;;;;;;;8.53;6.03;;;;;;;;;;5078134;28;20226;-77
2023/01/20 11:13:17;;;;;;;9.70;6.30;;;;;;;;;;5078141;28;20325;-78
2023/01/20 11:15:46;;;;;;;9.43;5.87;;;;;;;;;;5071508;28;20298;-78
2023/01/20 11:18:21;;;;;;;7.27;4.97;;;;;;;;;;5082348;28;20656;-77
2023/01/20 11:20:49;;;;;;;9.17;5.40;;;;;;;;;;5090024;28;20662;-77
2023/01/20 11:23:21;;;;;;;7.67;5.43;;;;;;;;;;5070513;28;20297;-77
2023/01/20 11:25:54;;;;;;;10.47;6.83;;;;;;;;;;5073457;28;20218;-77
2023/01/20 11:28:21;;;;;;;12.80;6.90;;;;;;;;;;5075219;28;20743;-77
2023/01/20 11:30:52;;;;;;;11.00;6.70;;;;;;;;;;5080779;28;20234;-76
2023/01/20 11:33:21;;;;;;;8.73;6.20;;;;;;;;;;5084929;28;20320;-77
2023/01/20 11:35:59;;;;;;;8.07;5.70;;;;;;;;;;5083126;28;20242;-76
2023/01/20 11:38:27;;;;;;;10.13;6.20;;;;;;;;;;5074543;28;20199;-77
2023/01/20 11:40:56;;;;;;;7.23;5.60;;;;;;;;;;5074598;28;20219;-77
2023/01/20 11:43:30;;;;;;;9.57;6.03;;;;;;;;;;5078904;28;20202;-77
2023/01/20 11:46:15;;;;;;;9.50;5.50;;;;;;;;;;5081039;28;20645;-79
2023/01/20 11:48:43;;;;;;;9.83;5.30;;;;;;;;;;5074366;28;20697;-76
2023/01/20 11:51:19;;;;;;;9.50;5.30;;;;;;;;;;5083570;28;20219;-78
2023/01/20 11:53:47;;;;;;;8.60;5.50;;;;;;;;;;5088112;28;20218;-78
2023/01/20 11:56:18;;;;;;;9.23;6.20;;;;;;;;;;5088953;28;20670;-78
2023/01/20 11:58:50;;;;;;;9.10;5.60;;;;;;;;;;5083393;28;20285;-78
2023/01/20 12:01:21;;;;;;;11.70;5.47;;;;;;;;;;5084024;28;20278;-78
2023/01/20 12:04:05;;;;;;;7.23;5.00;;;;;;;;;;5083026;28;20278;-78
2023/01/20 12:06:35;;;;;;;8.53;5.30;;;;;;;;;;5082861;28;20294;-78
2023/01/20 12:09:04;;;;;;;9.20;5.30;;;;;;;;;;5081145;28;20321;-78
2023/01/20 12:11:33;;;;;;;8.27;5.00;;;;;;;;;;5083723;28;20607;-78
2023/01/20 12:14:21;;;;;;;9.83;5.10;;;;;;;;;;5082755;28;20360;-78
2023/01/20 12:16:50;;;;;;;13.77;9.10;;;;;;;;;;5080123;28;20199;-78
2023/01/20 12:19:21;;;;;;;13.97;10.10;;;;;;;;;;5081970;28;20211;-78
2023/01/20 12:21:50;;;;;;;11.17;8.43;;;;;;;;;;5083090;28;20277;-79
2023/01/20 12:24:20;;;;;;;7.30;5.77;;;;;;;;;;5081270;28;20278;-78
2023/01/20 12:26:48;;;;;;;6.07;4.97;;;;;;;;;;5082152;28;20202;-79
2023/01/20 12:29:20;;;;;;;8.63;5.60;;;;;;;;;;5079847;28;20283;-78
2023/01/20 12:31:47;;;;;;;9.37;5.53;;;;;;;;;;5077032;28;20227;-78
2023/01/20 12:34:16;;;;;;;11.37;5.90;;;;;;;;;;5089875;28;20594;-78
2023/01/20 12:36:58;;;;;;;9.97;5.60;;;;;;;;;;5091994;28;20198;-78
2023/01/20 12:39:28;;;;;;;9.07;5.10;;;;;;;;;;5090155;28;20761;-78
2023/01/20 12:42:10;;;;;;;7.27;4.80;;;;;;;;;;5073609;28;20285;-78
2023/01/20 12:44:39;;;;;;;7.53;5.40;;;;;;;;;;5078624;28;20242;-78
2023/01/20 12:47:15;;;;;;;7.83;5.37;;;;;;;;;;5093585;28;20286;-79
2023/01/20 12:49:50;;;;;;;9.50;6.50;;;;;;;;;;5091194;28;20209;-78
2023/01/20 12:52:29;;;;;;;8.43;5.10;;;;;;;;;;5073192;28;20656;-78
2023/01/20 12:55:03;;;;;;;10.17;5.80;;;;;;;;;;5073246;28;20298;-78
2023/01/20 12:57:37;;;;;;;7.60;4.83;;;;;;;;;;5073216;28;20302;-78
2023/01/20 13:00:12;;;;;;;7.40;4.60;;;;;;;;;;5072883;28;20252;-78
2023/01/20 13:02:55;;;;;;;7.17;4.03;;;;;;;;;;5078240;28;20632;-78
2023/01/20 13:05:40;;;;;;;8.30;4.30;;;;;;;;;;5075798;28;20226;-78
2023/01/20 13:08:14;;;;;;;6.67;4.37;;;;;;;;;;5092099;28;20281;-79
2023/01/20 13:10:48;;;;;;;6.33;4.83;;;;;;;;;;5091470;28;20731;-78
2023/01/20 13:13:20;;;;;;;8.10;5.10;;;;;;;;;;5076929;28;20329;-79
2023/01/20 13:15:51;;;;;;;7.30;5.00;;;;;;;;;;5092934;28;20561;-78
2023/01/20 13:18:24;;;;;;;7.00;4.83;;;;;;;;;;5074087;28;20226;-78
2023/01/20 13:20:52;;;;;;;8.67;4.73;;;;;;;;;;5072076;28;20765;-78
2023/01/20 13:23:23;;;;;;;6.23;4.57;;;;;;;;;;5076528;28;20250;-78
2023/01/20 13:25:51;;;;;;;7.37;4.70;;;;;;;;;;5091963;28;20203;-78
2023/01/20 13:28:19;;;;;;;6.13;3.97;;;;;;;;;;5092149;28;20214;-78
2023/01/20 13:30:49;;;;;;;8.53;5.43;;;;;;;;;;5092706;28;20210;-78
2023/01/20 13:33:29;;;;;;;7.87;4.70;;;;;;;;;;5091817;28;20271;-78
2023/01/20 13:35:58;;;;;;;7.30;3.97;;;;;;;;;;5084451;28;20206;-79
2023/01/20 13:38:29;;;;;;;6.90;4.00;;;;;;;;;;5088242;28;20715;-78
2023/01/20 13:41:01;;;;;;;4.70;3.30;;;;;;;;;;5091955;28;20202;-78
2023/01/20 13:43:46;;;;;;;4.80;3.40;;;;;;;;;;5092272;28;20198;-78
2023/01/20 13:46:32;;;;;;;7.70;3.77;;;;;;;;;;5067277;28;20277;-78
2023/01/20 13:49:13;;;;;;;6.47;3.27;;;;;;;;;;5091665;28;20218;-79
2023/01/20 13:51:45;;;;;;;5.97;3.07;;;;;;;;;;5074691;28;20286;-79
2023/01/20 13:54:34;;;;;;;5.13;2.80;;;;;;;;;;5072725;28;20739;-78
2023/01/20 13:57:31;;;;;;;3.93;2.80;;;;;;;;;;5091628;28;20252;-79
2023/01/20 14:00:00;;;;;;;6.30;2.40;;;;;;;;;;4989561;28;20308;-79
2023/01/20 14:02:27;;;;;;;5.07;2.40;;;;;;;;;;4984438;28;20251;-78
2023/01/20 14:04:57;;;;;;;4.47;2.60;;;;;;;;;;4970551;28;20694;-78
2023/01/20 14:07:25;;;;;;;5.10;2.43;;;;;;;;;;4977524;28;20285;-78
2023/01/20 14:09:52;;;;;;;4.03;2.93;;;;;;;;;;4988021;28;20702;-77
2023/01/20 14:12:20;;;;;;;5.43;2.70;;;;;;;;;;4988317;28;20197;-78
2023/01/20 14:14:49;;;;;;;4.77;2.80;;;;;;;;;;4988461;28;20284;-78
2023/01/20 14:17:19;;;;;;;5.13;3.57;;;;;;;;;;4985659;28;20198;-78
2023/01/20 14:19:47;;;;;;;5.60;3.00;;;;;;;;;;4988684;28;20202;-79
2023/01/20 14:22:19;;;;;;;6.67;3.60;;;;;;;;;;4989258;28;20198;-79
2023/01/20 14:24:46;;;;;;;4.67;3.30;;;;;;;;;;4990055;28;20234;-79
2023/01/20 14:27:18;;;;;;;4.80;3.30;;;;;;;;;;4970793;28;20327;-79
2023/01/20 14:29:45;;;;;;;5.47;3.70;;;;;;;;;;4985064;28;20198;-78
2023/01/20 14:32:22;;;;;;;7.40;4.53;;;;;;;;;;4984980;28;20281;-79
2023/01/20 14:34:50;;;;;;;7.67;5.30;;;;;;;;;;5051248;28;20681;-79
2023/01/20 14:37:35;;;;;;;9.20;4.30;;;;;;;;;;5071239;28;20290;-78
2023/01/20 14:40:06;;;;;;;6.27;3.47;;;;;;;;;;5071569;28;20203;-79
2023/01/20 14:42:33;;;;;;;5.97;3.90;;;;;;;;;;5071018;28;20325;-79
2023/01/20 14:45:00;;;;;;;4.93;3.00;;;;;;;;;;5071424;28;20286;-79
2023/01/20 14:47:30;;;;;;;4.67;2.80;;;;;;;;;;5086046;28;20570;-78
2023/01/20 14:49:57;;;;;;;4.77;2.43;;;;;;;;;;5090850;28;20935;-78
2023/01/20 14:52:27;;;;;;;6.07;3.20;;;;;;;;;;5091271;28;20305;-79